createdAt,value
2018-11-11T00:01:00.146Z,5.77
2018-11-11T00:03:31.727Z,6.40
2018-11-11T00:06:03.147Z,5.70
2018-11-11T00:08:31.950Z,6.60
2018-11-11T00:11:00.954Z,5.70
2018-11-11T00:13:32.662Z,6.07
2018-11-11T00:16:04.621Z,5.97
2018-11-11T00:18:37.509Z,6.70
2018-11-11T00:21:06.428Z,6.43
2018-11-11T00:23:35.990Z,6.00
2018-11-11T00:26:05.594Z,6.77
2018-11-11T00:28:35.747Z,6.37
2018-11-11T00:31:07.229Z,6.63
2018-11-11T00:33:35.791Z,5.87
2018-11-11T00:36:06.389Z,6.70
2018-11-11T00:38:34.897Z,5.50
2018-11-11T00:41:03.553Z,5.67
2018-11-11T00:43:39.283Z,5.67
2018-11-11T00:46:08.772Z,6.00
2018-11-11T00:48:37.284Z,6.07
2018-11-11T00:51:06.305Z,5.73
2018-11-11T00:53:34.789Z,6.00
2018-11-11T00:56:03.316Z,5.83
2018-11-11T00:58:31.838Z,5.37
2018-11-11T01:01:00.353Z,5.87
2018-11-11T01:03:28.830Z,5.90
2018-11-11T01:05:57.590Z,6.03
2018-11-11T01:08:26.091Z,5.77
2018-11-11T01:10:54.637Z,4.97
2018-11-11T01:13:23.140Z,5.40
2018-11-11T01:15:51.645Z,5.80
2018-11-11T01:18:21.326Z,5.97
2018-11-11T01:20:49.826Z,4.73
2018-11-11T01:23:18.345Z,4.63
2018-11-11T01:25:46.843Z,4.50
2018-11-11T01:28:15.350Z,4.70
2018-11-11T01:30:43.842Z,4.93
2018-11-11T01:33:12.351Z,4.77
2018-11-11T01:35:40.893Z,3.90
2018-11-11T01:38:09.412Z,4.63
2018-11-11T01:40:37.923Z,3.90
2018-11-11T01:43:06.474Z,3.83
2018-11-11T01:45:34.997Z,3.90
2018-11-11T01:48:03.509Z,4.00
2018-11-11T01:50:32.015Z,4.07
2018-11-11T01:53:00.538Z,3.43
2018-11-11T01:55:29.052Z,3.67
2018-11-11T01:57:57.542Z,4.40
2018-11-11T02:00:26.078Z,3.43
2018-11-11T02:02:54.577Z,4.10
2018-11-11T02:05:23.070Z,3.30
2018-11-11T02:07:52.606Z,3.23
2018-11-11T02:10:21.113Z,3.80
2018-11-11T02:12:49.634Z,3.60
2018-11-11T02:15:18.525Z,3.27
2018-11-11T02:17:47.034Z,3.27
2018-11-11T02:20:17.881Z,3.00
2018-11-11T02:22:47.397Z,3.37
2018-11-11T02:25:15.962Z,3.27
2018-11-11T02:27:44.864Z,3.93
2018-11-11T02:30:14.646Z,2.93
2018-11-11T02:32:43.475Z,3.20
2018-11-11T02:35:12.357Z,3.43
2018-11-11T02:37:40.969Z,2.70
2018-11-11T02:40:11.247Z,3.13
2018-11-11T02:42:39.754Z,3.60
2018-11-11T02:45:09.346Z,3.50
2018-11-11T02:47:38.030Z,2.87
2018-11-11T02:50:07.246Z,3.10
2018-11-11T02:52:35.792Z,2.27
2018-11-11T02:55:04.287Z,2.30
2018-11-11T02:57:32.857Z,2.20
2018-11-11T03:00:01.368Z,2.57
2018-11-11T03:02:29.899Z,2.67
2018-11-11T03:04:58.434Z,2.93
2018-11-11T03:07:26.945Z,2.40
2018-11-11T03:09:55.629Z,2.40
2018-11-11T03:12:24.127Z,2.37
2018-11-11T03:14:53.446Z,2.60
2018-11-11T03:17:21.954Z,3.07
2018-11-11T03:19:50.462Z,2.73
2018-11-11T03:22:18.991Z,3.37
2018-11-11T03:24:47.507Z,3.40
2018-11-11T03:27:16.357Z,3.30
2018-11-11T03:29:46.374Z,3.08
2018-11-11T03:32:14.895Z,2.53
2018-11-11T03:34:43.390Z,2.87
2018-11-11T03:37:11.874Z,2.33
2018-11-11T03:39:40.379Z,3.13
2018-11-11T03:42:08.950Z,2.33
2018-11-11T03:44:37.842Z,2.53
2018-11-11T03:47:07.103Z,2.30
2018-11-11T03:49:35.973Z,2.60
2018-11-11T03:52:04.597Z,3.10
2018-11-11T03:54:33.097Z,2.40
2018-11-11T03:57:01.630Z,2.73
2018-11-11T03:59:30.249Z,2.67
2018-11-11T04:01:58.740Z,2.27
2018-11-11T04:04:27.263Z,2.37
2018-11-11T04:06:55.794Z,3.17
2018-11-11T04:09:24.281Z,1.73
2018-11-11T04:11:52.791Z,2.80
2018-11-11T04:14:21.462Z,2.77
2018-11-11T04:16:49.986Z,2.23
2018-11-11T04:19:19.046Z,2.33
2018-11-11T04:21:47.638Z,2.40
2018-11-11T04:24:16.150Z,2.10
2018-11-11T04:26:44.658Z,2.67
2018-11-11T04:29:13.210Z,2.57
2018-11-11T04:31:41.695Z,2.30
2018-11-11T04:34:10.397Z,2.60
2018-11-11T04:36:38.909Z,2.95
2018-11-11T04:39:08.338Z,2.40
2018-11-11T04:41:36.846Z,3.07
2018-11-11T04:44:05.361Z,2.57
2018-11-11T04:46:33.913Z,2.73
2018-11-11T04:49:02.430Z,2.40
2018-11-11T04:51:30.947Z,2.20
2018-11-11T04:53:59.462Z,1.80
2018-11-11T04:56:27.964Z,1.90
2018-11-11T04:58:56.462Z,2.40
2018-11-11T05:01:25.017Z,1.90
2018-11-11T05:03:53.479Z,2.07
2018-11-11T05:06:22.761Z,1.97
2018-11-11T05:08:51.395Z,2.20
2018-11-11T05:11:19.982Z,2.93
2018-11-11T05:13:48.481Z,2.60
2018-11-11T05:16:16.998Z,2.23
2018-11-11T05:18:45.529Z,2.13
2018-11-11T05:21:14.016Z,2.23
2018-11-11T05:23:42.502Z,1.63
2018-11-11T05:26:11.110Z,1.97
2018-11-11T05:28:40.249Z,2.20
2018-11-11T05:31:10.128Z,1.93
2018-11-11T05:33:38.653Z,1.50
2018-11-11T05:36:07.199Z,1.90
2018-11-11T05:38:35.723Z,2.73
2018-11-11T05:41:04.218Z,2.20
2018-11-11T05:43:32.720Z,1.97
2018-11-11T05:46:01.254Z,1.87
2018-11-11T05:48:30.776Z,2.03
2018-11-11T05:50:59.301Z,1.97
2018-11-11T05:53:28.824Z,2.77
2018-11-11T05:55:58.554Z,1.80
2018-11-11T05:58:27.066Z,2.37
2018-11-11T06:00:55.567Z,2.70
2018-11-11T06:03:24.110Z,2.43
2018-11-11T06:05:52.627Z,2.00
2018-11-11T06:08:21.124Z,2.17
2018-11-11T06:10:49.623Z,3.40
2018-11-11T06:13:18.135Z,2.50
2018-11-11T06:15:46.657Z,3.13
2018-11-11T06:18:15.153Z,2.50
2018-11-11T06:20:43.677Z,2.60
2018-11-11T06:23:12.200Z,2.57
2018-11-11T06:25:40.703Z,2.87
2018-11-11T06:28:09.238Z,2.20
2018-11-11T06:30:37.747Z,2.43
2018-11-11T06:33:06.261Z,2.60
2018-11-11T06:35:35.642Z,2.00
2018-11-11T06:38:06.294Z,2.10
2018-11-11T06:40:34.829Z,2.70
2018-11-11T06:43:03.352Z,2.67
2018-11-11T06:45:32.612Z,2.23
2018-11-11T06:48:02.342Z,2.30
2018-11-11T06:50:31.184Z,2.43
2018-11-11T06:52:59.729Z,2.20
2018-11-11T06:55:28.223Z,1.87
2018-11-11T06:57:56.938Z,1.87
2018-11-11T07:00:25.447Z,2.07
2018-11-11T07:02:59.297Z,1.90
2018-11-11T07:05:27.832Z,1.77
2018-11-11T07:07:56.367Z,1.70
2018-11-11T07:10:25.143Z,1.60
2018-11-11T07:12:53.646Z,1.73
2018-11-11T07:15:22.155Z,1.67
2018-11-11T07:17:50.718Z,1.53
2018-11-11T07:20:19.205Z,1.67
2018-11-11T07:22:47.693Z,2.10
2018-11-11T07:25:16.243Z,1.90
2018-11-11T07:27:44.730Z,2.30
2018-11-11T07:30:13.293Z,2.17
2018-11-11T07:32:41.790Z,1.80
2018-11-11T07:35:11.103Z,1.30
2018-11-11T07:37:39.698Z,1.70
2018-11-11T07:40:09.457Z,1.67
2018-11-11T07:42:38.011Z,2.00
2018-11-11T07:45:06.544Z,2.13
2018-11-11T07:47:35.611Z,2.33
2018-11-11T07:50:04.582Z,2.50
2018-11-11T07:52:33.079Z,2.23
2018-11-11T07:55:02.370Z,2.13
2018-11-11T07:57:31.046Z,2.13
2018-11-11T07:59:59.542Z,2.40
2018-11-11T08:02:29.264Z,2.43
2018-11-11T08:04:57.905Z,2.43
2018-11-11T08:07:26.919Z,2.10
2018-11-11T08:09:55.421Z,2.00
2018-11-11T08:12:23.921Z,2.10
2018-11-11T08:14:52.420Z,1.83
2018-11-11T08:17:20.918Z,2.10
2018-11-11T08:19:49.474Z,2.03
2018-11-11T08:22:20.772Z,2.33
2018-11-11T08:24:52.709Z,2.47
2018-11-11T08:27:24.677Z,2.23
2018-11-11T08:29:54.789Z,2.37
2018-11-11T08:32:24.931Z,2.30
2018-11-11T08:34:53.427Z,2.30
2018-11-11T08:37:21.930Z,2.50
2018-11-11T08:39:50.462Z,2.47
2018-11-11T08:42:19.015Z,2.30
2018-11-11T08:44:47.529Z,2.13
2018-11-11T08:47:16.035Z,1.87
2018-11-11T08:49:45.213Z,2.23
2018-11-11T08:52:13.756Z,2.70
2018-11-11T08:54:42.276Z,2.60
2018-11-11T08:57:10.779Z,2.23
2018-11-11T08:59:39.283Z,2.10
2018-11-11T09:02:07.785Z,1.80
2018-11-11T09:04:36.284Z,2.23
2018-11-11T09:07:04.828Z,2.63
2018-11-11T09:09:33.330Z,2.50
2018-11-11T09:12:01.952Z,2.20
2018-11-11T09:14:30.524Z,2.43
2018-11-11T09:16:59.014Z,2.23
2018-11-11T09:19:27.540Z,2.00
2018-11-11T09:21:56.036Z,2.00
2018-11-11T09:24:24.547Z,1.80
2018-11-11T09:26:53.039Z,1.80
2018-11-11T09:29:21.556Z,2.63
2018-11-11T09:31:50.122Z,2.00
2018-11-11T09:34:18.658Z,2.10
2018-11-11T09:36:47.179Z,1.63
2018-11-11T09:39:15.751Z,2.13
2018-11-11T09:41:44.219Z,2.13
2018-11-11T09:44:13.741Z,2.57
2018-11-11T09:46:42.269Z,2.00
2018-11-11T09:49:11.315Z,1.77
2018-11-11T09:51:43.088Z,1.90
2018-11-11T09:54:12.140Z,1.70
2018-11-11T09:56:41.664Z,1.67
2018-11-11T10:01:58.682Z,1.67
2018-11-11T10:04:34.819Z,1.83
2018-11-11T10:07:09.144Z,1.60
2018-11-11T10:14:31.570Z,2.40
2018-11-11T10:17:05.061Z,1.93
2018-11-11T10:19:40.493Z,2.13
2018-11-11T10:22:17.501Z,1.70
2018-11-11T10:24:54.510Z,2.20
2018-11-11T10:27:27.304Z,1.73
2018-11-11T10:32:03.502Z,1.90
2018-11-11T10:34:37.206Z,2.23
2018-11-11T10:37:11.106Z,2.30
2018-11-11T10:41:46.370Z,2.20
2018-11-11T10:44:33.200Z,1.93
2018-11-11T10:47:05.625Z,2.30
2018-11-11T10:49:41.768Z,2.10
2018-11-11T10:52:10.285Z,2.40
2018-11-11T10:54:38.814Z,1.80
2018-11-11T10:57:07.322Z,2.50
2018-11-11T10:59:35.838Z,2.57
2018-11-11T11:02:09.478Z,2.57
2018-11-11T11:04:43.591Z,2.50
2018-11-11T11:07:14.137Z,2.00
2018-11-11T11:09:42.641Z,2.30
2018-11-11T11:12:11.162Z,1.93
2018-11-11T11:14:41.049Z,2.27
2018-11-11T11:17:10.318Z,2.47
2018-11-11T11:19:38.908Z,2.63
2018-11-11T11:22:07.727Z,1.70
2018-11-11T11:24:36.221Z,2.30
2018-11-11T11:27:04.734Z,2.20
2018-11-11T11:29:33.231Z,2.17
2018-11-11T11:32:01.966Z,2.13
2018-11-11T11:34:30.350Z,2.30
2018-11-11T11:36:59.379Z,1.97
2018-11-11T11:39:27.884Z,2.77
2018-11-11T11:41:56.431Z,2.97
2018-11-11T11:44:24.985Z,2.07
2018-11-11T11:46:53.478Z,2.43
2018-11-11T11:49:21.991Z,2.73
2018-11-11T11:51:50.512Z,1.87
2018-11-11T11:54:19.009Z,2.97
2018-11-11T11:56:47.549Z,2.20
2018-11-11T11:59:16.052Z,2.47
2018-11-11T12:01:44.561Z,2.40
2018-11-11T12:04:13.823Z,2.93
2018-11-11T12:06:42.328Z,3.07
2018-11-11T12:09:11.538Z,2.13
2018-11-11T12:11:40.994Z,2.30
2018-11-11T12:14:16.142Z,2.53
2018-11-11T12:16:52.592Z,2.73
2018-11-11T12:19:29.257Z,2.43
2018-11-11T12:22:10.779Z,2.40
2018-11-11T12:24:41.655Z,2.63
2018-11-11T12:27:17.219Z,3.53
2018-11-11T12:29:45.814Z,2.20
2018-11-11T12:32:20.610Z,2.10
2018-11-11T12:34:52.840Z,3.33
2018-11-11T12:37:21.467Z,1.97
2018-11-11T12:39:50.072Z,2.17
2018-11-11T12:42:19.560Z,2.57
2018-11-11T12:44:48.731Z,2.67
2018-11-11T12:47:17.388Z,2.87
2018-11-11T12:49:46.430Z,2.67
2018-11-11T12:52:15.437Z,2.23
2018-11-11T12:54:44.252Z,2.50
2018-11-11T12:57:14.910Z,2.60
2018-11-11T12:59:49.577Z,3.17
2018-11-11T13:02:18.518Z,2.53
2018-11-11T13:04:47.383Z,2.93
2018-11-11T13:07:16.045Z,2.70
2018-11-11T13:09:44.773Z,2.60
2018-11-11T13:12:14.589Z,2.47
2018-11-11T13:14:43.156Z,2.40
2018-11-11T13:17:12.075Z,2.57
2018-11-11T13:19:42.217Z,2.00
2018-11-11T13:22:11.211Z,2.27
2018-11-11T13:24:41.885Z,2.80
2018-11-11T13:27:10.493Z,2.97
2018-11-11T13:29:39.030Z,2.57
2018-11-11T13:32:07.556Z,3.00
2018-11-11T13:34:36.069Z,2.30
2018-11-11T13:37:06.447Z,2.77
2018-11-11T13:39:37.131Z,3.13
2018-11-11T13:42:06.117Z,2.47
2018-11-11T13:44:35.132Z,2.20
2018-11-11T13:47:03.841Z,2.17
2018-11-11T13:49:32.672Z,2.20
2018-11-11T13:52:02.503Z,2.90
2018-11-11T13:56:00.638Z,2.00
2018-11-11T13:58:29.631Z,2.00
2018-11-11T14:01:01.789Z,2.43
2018-11-11T14:03:31.193Z,1.87
2018-11-11T14:05:59.854Z,2.43
2018-11-11T14:08:28.389Z,2.60
2018-11-11T14:10:57.018Z,2.33
2018-11-11T14:13:25.537Z,1.80
2018-11-11T14:15:54.084Z,1.70
2018-11-11T14:18:22.686Z,1.83
2018-11-11T14:20:51.134Z,2.13
2018-11-11T14:23:20.191Z,2.47
2018-11-11T14:25:49.353Z,2.47
2018-11-11T14:28:17.841Z,1.67
2018-11-11T14:30:49.624Z,2.07
2018-11-11T14:33:20.223Z,1.83
2018-11-11T14:35:48.773Z,1.50
2018-11-11T14:38:17.548Z,1.67
2018-11-11T14:40:46.142Z,2.43
2018-11-11T14:43:14.626Z,1.70
2018-11-11T14:45:43.134Z,1.87
2018-11-11T14:48:11.615Z,2.20
2018-11-11T14:50:40.102Z,1.70
2018-11-11T14:53:08.621Z,1.13
2018-11-11T14:55:37.110Z,1.53
2018-11-11T14:58:05.714Z,1.83
2018-11-11T15:00:35.697Z,1.70
2018-11-11T15:03:09.366Z,2.10
2018-11-11T15:05:37.929Z,1.53
2018-11-11T15:08:06.544Z,1.27
2018-11-11T15:10:35.037Z,1.30
2018-11-11T15:13:03.584Z,2.00
2018-11-11T15:15:33.032Z,1.40
2018-11-11T15:18:02.029Z,1.37
2018-11-11T15:20:31.132Z,1.60
2018-11-11T15:23:00.143Z,1.40
2018-11-11T15:25:29.587Z,1.70
2018-11-11T15:27:58.050Z,1.23
2018-11-11T15:30:27.775Z,1.67
2018-11-11T15:32:56.925Z,1.33
2018-11-11T15:35:25.422Z,1.60
2018-11-11T15:37:54.582Z,1.50
2018-11-11T15:40:25.430Z,1.63
2018-11-11T15:42:54.979Z,1.60
2018-11-11T15:45:24.770Z,1.50
2018-11-11T15:47:53.310Z,1.60
2018-11-11T15:50:23.016Z,1.20
2018-11-11T15:52:52.818Z,1.37
2018-11-11T15:55:22.518Z,1.57
2018-11-11T15:57:51.034Z,1.30
2018-11-11T16:00:21.077Z,1.70
2018-11-11T16:02:49.589Z,1.67
2018-11-11T16:05:18.726Z,1.50
2018-11-11T16:07:48.016Z,1.80
2018-11-11T16:10:18.847Z,1.47
2018-11-11T16:12:48.075Z,1.10
2018-11-11T16:15:20.578Z,1.30
2018-11-11T16:17:50.970Z,1.43
2018-11-11T16:20:20.895Z,1.63
2018-11-11T16:22:50.574Z,1.30
2018-11-11T16:25:20.116Z,1.97
2018-11-11T16:27:50.435Z,1.13
2018-11-11T16:30:20.206Z,1.47
2018-11-11T16:32:49.717Z,1.10
2018-11-11T16:35:24.464Z,1.47
2018-11-11T16:38:07.217Z,1.37
2018-11-11T16:40:54.855Z,1.33
2018-11-11T16:43:26.298Z,1.73
2018-11-11T16:45:54.846Z,1.70
2018-11-11T16:48:26.069Z,1.37
2018-11-11T16:51:02.214Z,1.30
2018-11-11T16:53:30.896Z,1.53
2018-11-11T16:55:59.933Z,1.33
2018-11-11T16:58:28.504Z,1.50
2018-11-11T17:00:57.019Z,1.93
2018-11-11T17:03:25.539Z,1.63
2018-11-11T17:05:54.063Z,1.80
2018-11-11T17:11:07.599Z,1.33
2018-11-11T17:13:36.402Z,1.53
2018-11-11T17:16:04.926Z,1.57
2018-11-11T17:18:35.232Z,1.47
2018-11-11T17:21:05.680Z,1.30
2018-11-11T17:23:39.763Z,1.50
2018-11-11T17:26:08.775Z,1.93
2018-11-11T17:28:37.327Z,2.20
2018-11-11T17:31:05.863Z,1.53
2018-11-11T17:33:35.890Z,1.43
2018-11-11T17:36:06.864Z,2.10
2018-11-11T17:38:35.396Z,1.83
2018-11-11T17:41:03.920Z,1.83
2018-11-11T17:43:38.923Z,2.10
2018-11-11T17:48:44.918Z,2.40
2018-11-11T17:51:15.511Z,1.90
2018-11-11T17:53:46.185Z,2.50
2018-11-11T17:56:14.718Z,2.20
2018-11-11T17:58:43.277Z,2.85
2018-11-11T18:01:11.818Z,2.03
2018-11-11T18:03:40.397Z,1.90
2018-11-11T18:06:11.068Z,1.70
2018-11-11T18:08:40.810Z,1.70
2018-11-11T18:11:09.373Z,1.87
2018-11-11T18:13:43.428Z,2.00
2018-11-11T18:16:11.982Z,2.20
2018-11-11T18:18:40.846Z,2.00
2018-11-11T18:21:09.401Z,1.70
2018-11-11T18:23:37.907Z,1.97
2018-11-11T18:26:10.573Z,2.40
2018-11-11T18:28:45.067Z,1.93
2018-11-11T18:31:20.837Z,2.00
2018-11-11T18:33:51.475Z,1.80
2018-11-11T18:36:22.239Z,1.87
2018-11-11T18:38:58.518Z,1.90
2018-11-11T18:41:31.916Z,2.27
2018-11-11T18:44:01.365Z,2.30
2018-11-11T18:46:31.100Z,2.50
2018-11-11T18:48:59.630Z,2.00
2018-11-11T18:51:33.414Z,1.67
2018-11-11T18:54:04.555Z,1.47
2018-11-11T18:56:33.851Z,1.60
2018-11-11T18:59:07.575Z,2.27
2018-11-11T19:01:39.962Z,2.13
2018-11-11T19:04:09.450Z,1.80
2018-11-11T19:06:37.942Z,3.63
2018-11-11T19:09:10.140Z,1.97
2018-11-11T19:11:39.020Z,2.27
2018-11-11T19:14:07.863Z,2.40
2018-11-11T19:16:36.489Z,1.70
2018-11-11T19:19:05.554Z,4.83
2018-11-11T19:21:34.855Z,9.23
2018-11-11T19:24:03.481Z,30.63
2018-11-11T19:26:34.976Z,13.80
2018-11-11T19:29:04.414Z,8.47
2018-11-11T19:31:34.331Z,2.83
2018-11-11T19:34:03.600Z,2.07
2018-11-11T19:36:32.114Z,2.30
2018-11-11T19:39:01.010Z,2.00
2018-11-11T19:41:29.578Z,1.90
2018-11-11T19:43:58.058Z,2.23
2018-11-11T19:46:26.610Z,2.03
2018-11-11T19:48:55.881Z,1.83
2018-11-11T19:51:25.664Z,2.40
2018-11-11T19:53:55.616Z,2.07
2018-11-11T19:56:25.101Z,2.23
2018-11-11T19:58:53.677Z,2.50
2018-11-11T20:01:23.903Z,2.77
2018-11-11T20:03:53.621Z,1.80
2018-11-11T20:06:30.446Z,2.40
2018-11-11T20:09:18.287Z,2.80
2018-11-11T20:11:50.913Z,3.27
2018-11-11T20:14:19.444Z,2.80
2018-11-11T20:16:48.935Z,2.93
2018-11-11T20:19:17.470Z,2.77
2018-11-11T20:21:46.146Z,3.40
2018-11-11T20:24:14.690Z,3.00
2018-11-11T20:26:43.242Z,3.30
2018-11-11T20:29:11.783Z,3.00
2018-11-11T20:31:40.359Z,3.73
2018-11-11T20:34:09.268Z,3.30
2018-11-11T20:36:54.406Z,3.87
2018-11-11T20:39:23.231Z,3.37
2018-11-11T20:41:51.766Z,3.20
2018-11-11T20:44:20.326Z,3.70
2018-11-11T20:46:50.658Z,3.50
2018-11-11T20:49:27.892Z,3.67
2018-11-11T20:52:03.570Z,3.43
2018-11-11T20:57:44.978Z,3.90
2018-11-11T21:00:21.153Z,3.20
2018-11-11T21:02:49.770Z,2.93
2018-11-11T21:05:19.681Z,3.50
2018-11-11T21:08:07.435Z,3.40
2018-11-11T21:10:43.703Z,3.20
2018-11-11T21:13:13.868Z,2.73
2018-11-11T21:15:43.010Z,3.40
2018-11-11T21:18:15.326Z,3.03
2018-11-11T21:21:01.382Z,3.50
2018-11-11T21:23:30.682Z,4.00
2018-11-11T21:26:05.368Z,3.70
2018-11-11T21:28:41.913Z,4.10
2018-11-11T21:31:15.833Z,3.30
2018-11-11T21:33:46.746Z,3.97
2018-11-11T21:39:09.911Z,3.63
2018-11-11T21:47:08.537Z,3.80
2018-11-11T21:49:45.822Z,4.30
2018-11-11T21:52:25.692Z,3.70
2018-11-11T21:55:00.329Z,3.97
2018-11-11T21:57:39.941Z,4.10
2018-11-11T22:00:17.575Z,4.27
2018-11-11T22:03:29.797Z,3.97
2018-11-11T22:06:02.418Z,4.07
2018-11-11T22:08:56.769Z,3.77
2018-11-11T22:14:19.445Z,3.90
2018-11-11T22:16:49.169Z,5.00
2018-11-11T22:19:20.315Z,5.07
2018-11-11T22:25:06.556Z,4.60
2018-11-11T22:33:08.584Z,4.57
2018-11-11T22:35:43.608Z,4.57
2018-11-11T22:38:17.402Z,4.53
2018-11-11T22:40:48.374Z,6.27
2018-11-11T22:46:01.005Z,5.83
2018-11-11T22:48:57.094Z,5.83
2018-11-11T22:54:09.017Z,5.93
2018-11-11T22:56:40.565Z,6.00
2018-11-11T22:59:09.771Z,6.50
2018-11-11T23:01:42.758Z,6.07
2018-11-11T23:04:13.907Z,6.47
2018-11-11T23:12:06.919Z,6.30
2018-11-11T23:14:36.559Z,6.67
2018-11-11T23:17:20.316Z,6.03
2018-11-11T23:22:39.036Z,6.33
2018-11-11T23:25:13.453Z,6.80
2018-11-11T23:27:43.119Z,6.63
2018-11-11T23:30:15.916Z,6.70
2018-11-11T23:32:47.308Z,6.10
2018-11-11T23:35:18.664Z,6.07
2018-11-11T23:37:48.404Z,6.30
2018-11-11T23:40:19.098Z,6.23
2018-11-11T23:42:57.725Z,5.90
2018-11-11T23:45:29.338Z,5.70
2018-11-11T23:47:58.596Z,6.80
2018-11-11T23:50:34.254Z,6.13
2018-11-11T23:53:11.218Z,6.47
2018-11-11T23:55:45.703Z,7.10
2018-11-11T23:58:20.062Z,6.33
